createdAt,value
2023-05-12T00:00:19.789Z,97316.41
2023-05-12T00:05:23.629Z,97305.94
2023-05-12T00:10:29.613Z,97308.00
2023-05-12T00:15:33.045Z,97312.09
2023-05-12T00:20:36.458Z,97313.19
2023-05-12T00:25:41.330Z,97308.41
2023-05-12T00:30:44.612Z,97307.03
2023-05-12T00:35:48.045Z,97301.41
2023-05-12T00:40:52.838Z,97308.25
2023-05-12T00:45:56.589Z,97312.13
2023-05-12T00:51:00.768Z,97316.38
2023-05-12T00:56:06.597Z,97314.56
2023-05-12T01:01:09.977Z,97303.91
2023-05-12T01:06:17.786Z,97311.03
2023-05-12T01:11:23.058Z,97314.00
2023-05-12T01:16:32.571Z,97312.31
2023-05-12T01:21:36.118Z,97307.53
2023-05-12T01:26:40.992Z,97310.81
2023-05-12T01:31:45.351Z,97315.84
2023-05-12T01:36:49.090Z,97318.38
2023-05-12T01:41:53.961Z,97318.47
2023-05-12T01:46:57.638Z,97322.94
2023-05-12T01:52:01.176Z,97323.72
2023-05-12T01:57:08.894Z,97320.97
2023-05-12T02:02:14.570Z,97329.91
2023-05-12T02:07:18.233Z,97327.72
2023-05-12T02:12:24.083Z,97331.63
2023-05-12T02:17:28.873Z,97329.94
2023-05-12T02:22:36.006Z,97335.19
2023-05-12T02:27:40.770Z,97347.59
2023-05-12T02:32:45.137Z,97346.63
2023-05-12T02:37:49.269Z,97344.75
2023-05-12T02:42:54.092Z,97347.47
2023-05-12T02:47:57.730Z,97342.22
2023-05-12T02:53:01.240Z,97334.56
2023-05-12T02:58:05.974Z,97346.53
2023-05-12T03:03:09.602Z,97345.72
2023-05-12T03:08:13.143Z,97343.06
2023-05-12T03:13:18.019Z,97346.69
2023-05-12T03:18:21.680Z,97339.75
2023-05-12T03:23:25.336Z,97341.81
2023-05-12T03:28:30.155Z,97343.25
2023-05-12T03:33:33.679Z,97341.69
2023-05-12T03:38:37.475Z,97343.84
2023-05-12T03:43:42.397Z,97342.41
2023-05-12T03:48:45.785Z,97337.28
2023-05-12T03:53:49.336Z,97348.09
2023-05-12T03:58:53.969Z,97341.06
2023-05-12T04:03:57.628Z,97343.84
2023-05-12T04:09:01.216Z,97347.81
2023-05-12T04:14:05.976Z,97356.78
2023-05-12T04:19:09.894Z,97359.63
2023-05-12T04:24:14.408Z,97349.56
2023-05-12T04:29:20.646Z,97354.38
2023-05-12T04:34:24.783Z,97355.56
2023-05-12T04:39:29.726Z,97366.13
2023-05-12T04:44:35.697Z,97361.53
2023-05-12T04:49:39.141Z,97362.38
2023-05-12T04:54:42.785Z,97364.94
2023-05-12T04:59:47.908Z,97369.13
2023-05-12T05:04:51.303Z,97370.66
2023-05-12T05:09:55.505Z,97362.38
2023-05-12T05:15:00.363Z,97372.19
2023-05-12T05:20:09.432Z,97382.59
2023-05-12T05:25:15.149Z,97382.56
2023-05-12T05:30:20.065Z,97380.56
2023-05-12T05:35:23.407Z,97380.59
2023-05-12T05:40:32.003Z,97389.69
2023-05-12T05:45:43.540Z,97381.88
2023-05-12T05:50:47.084Z,97385.19
2023-05-12T05:55:50.878Z,97383.22
2023-05-12T06:00:55.786Z,97396.81
2023-05-12T06:05:59.573Z,97399.94
2023-05-12T06:11:02.992Z,97406.22
2023-05-12T06:16:07.914Z,97402.97
2023-05-12T06:21:11.268Z,97410.53
2023-05-12T06:26:14.703Z,97412.03
2023-05-12T06:31:19.533Z,97411.03
2023-05-12T06:36:24.125Z,97404.94
2023-05-12T06:41:27.288Z,97408.50
2023-05-12T06:46:32.520Z,97413.38
2023-05-12T06:51:36.863Z,97412.34
2023-05-12T06:56:40.114Z,97409.34
2023-05-12T07:01:44.980Z,97410.78
2023-05-12T07:06:48.303Z,97413.31
2023-05-12T07:11:51.631Z,97406.81
2023-05-12T07:16:56.330Z,97405.59
2023-05-12T07:21:59.825Z,97414.25
2023-05-12T07:27:03.561Z,97415.44
2023-05-12T07:32:08.489Z,97406.94
2023-05-12T07:37:11.898Z,97415.56
2023-05-12T07:42:15.346Z,97416.66
2023-05-12T07:47:20.107Z,97410.31
2023-05-12T07:52:24.196Z,97407.25
2023-05-12T07:57:27.463Z,97398.53
2023-05-12T08:02:32.495Z,97406.56
2023-05-12T08:07:36.245Z,97404.06
2023-05-12T08:12:40.308Z,97403.00
2023-05-12T08:17:45.011Z,97405.75
2023-05-12T08:22:48.525Z,97403.63
2023-05-12T08:27:51.974Z,97402.63
2023-05-12T08:32:56.891Z,97413.91
2023-05-12T08:38:01.342Z,97412.34
2023-05-12T08:43:14.595Z,97406.59
2023-05-12T08:48:21.128Z,97407.06
2023-05-12T08:53:27.070Z,97417.88
2023-05-12T08:58:39.969Z,97409.69
2023-05-12T09:03:45.584Z,97400.06
2023-05-12T09:08:49.278Z,97401.16
2023-05-12T09:14:01.487Z,97407.75
2023-05-12T09:19:07.125Z,97403.16
2023-05-12T09:24:10.669Z,97399.34
2023-05-12T09:29:24.055Z,97404.13
2023-05-12T09:34:38.570Z,97406.16
2023-05-12T09:39:42.050Z,97406.75
2023-05-12T09:44:46.950Z,97405.97
2023-05-12T09:49:53.435Z,97400.28
2023-05-12T09:54:56.617Z,97409.84
2023-05-12T10:00:03.972Z,97403.13
2023-05-12T10:05:18.663Z,97398.75
2023-05-12T10:10:27.398Z,97405.91
2023-05-12T10:15:34.198Z,97401.38
2023-05-12T10:20:39.211Z,97400.97
2023-05-12T10:25:44.310Z,97394.28
2023-05-12T10:30:48.947Z,97391.72
2023-05-12T10:35:54.429Z,97392.78
2023-05-12T10:41:02.037Z,97398.09
2023-05-12T10:46:10.064Z,97392.31
2023-05-12T10:51:21.297Z,97386.06
2023-05-12T10:56:27.507Z,97379.16
2023-05-12T11:01:31.788Z,97384.25
2023-05-12T11:06:37.752Z,97382.47
2023-05-12T11:11:41.831Z,97384.88
2023-05-12T11:16:46.620Z,97388.97
2023-05-12T11:21:52.541Z,97389.06
2023-05-12T11:26:56.530Z,97382.59
2023-05-12T11:32:01.032Z,97376.03
2023-05-12T11:37:07.236Z,97391.63
2023-05-12T11:42:13.475Z,97388.69
2023-05-12T11:47:18.116Z,97394.59
2023-05-12T11:52:24.938Z,97390.75
2023-05-12T11:57:28.660Z,97395.22
2023-05-12T12:02:33.429Z,97400.97
2023-05-12T12:07:39.020Z,97397.47
2023-05-12T12:12:42.659Z,97400.69
2023-05-12T12:17:46.042Z,97394.72
2023-05-12T12:22:50.839Z,97398.84
2023-05-12T12:27:54.172Z,97387.22
2023-05-12T12:32:57.494Z,97390.81
2023-05-12T12:38:02.735Z,97396.53
2023-05-12T12:43:06.326Z,97392.41
2023-05-12T12:48:09.735Z,97386.19
2023-05-12T12:53:14.355Z,97387.41
2023-05-12T12:58:17.664Z,97386.31
2023-05-12T13:03:21.071Z,97395.88
2023-05-12T13:08:25.785Z,97402.66
2023-05-12T13:13:29.102Z,97405.91
2023-05-12T13:18:32.740Z,97413.41
2023-05-12T13:23:37.370Z,97412.59
2023-05-12T13:28:40.924Z,97419.25
2023-05-12T13:33:44.301Z,97428.59
2023-05-12T13:38:49.182Z,97415.28
2023-05-12T13:43:52.602Z,97429.53
2023-05-12T13:48:56.071Z,97421.13
2023-05-12T13:54:00.853Z,97433.88
2023-05-12T13:59:05.148Z,97423.19
2023-05-12T14:04:08.472Z,97417.88
2023-05-12T14:09:14.294Z,97423.59
2023-05-12T14:14:17.628Z,97411.25
2023-05-12T14:19:20.949Z,97425.00
2023-05-12T14:24:25.980Z,97427.50
2023-05-12T14:29:29.447Z,97427.34
2023-05-12T14:34:32.744Z,97428.38
2023-05-12T14:39:37.673Z,97438.88
2023-05-12T14:44:41.024Z,97438.50
2023-05-12T14:49:45.622Z,97437.91
2023-05-12T14:54:50.742Z,97438.31
2023-05-12T14:59:58.670Z,97429.50
2023-05-12T15:05:01.924Z,97433.53
2023-05-12T15:10:07.492Z,97435.22
2023-05-12T15:15:12.228Z,97439.06
2023-05-12T15:20:15.761Z,97448.59
2023-05-12T15:25:20.577Z,97452.28
2023-05-12T15:30:24.380Z,97454.09
2023-05-12T15:35:27.836Z,97436.53
2023-05-12T15:40:32.579Z,97445.91
2023-05-12T15:45:37.536Z,97432.88
2023-05-12T15:50:41.028Z,97433.47
2023-05-12T15:55:45.761Z,97427.59
2023-05-12T16:00:49.405Z,97419.84
2023-05-12T16:05:52.953Z,97417.72
2023-05-12T16:10:57.809Z,97426.53
2023-05-12T16:16:01.255Z,97428.09
2023-05-12T16:21:04.662Z,97415.13
2023-05-12T16:26:09.635Z,97416.97
2023-05-12T16:31:17.981Z,97422.06
2023-05-12T16:36:21.612Z,97419.56
2023-05-12T16:55:39.428Z,97413.94
2023-05-12T17:00:42.522Z,97427.56
2023-05-12T17:05:46.664Z,97426.84
2023-05-12T17:10:51.704Z,97423.41
2023-05-12T17:15:55.015Z,97425.72
2023-05-12T17:20:58.535Z,97432.78
2023-05-12T17:26:04.213Z,97435.34
2023-05-12T17:31:08.403Z,97432.53
2023-05-12T17:36:13.119Z,97441.25
2023-05-12T17:41:18.247Z,97454.47
2023-05-12T17:46:21.604Z,97447.91
2023-05-12T17:51:25.323Z,97451.34
2023-05-12T17:56:29.865Z,97452.88
2023-05-12T18:01:33.364Z,97452.94
2023-05-12T18:06:36.554Z,97456.81
2023-05-12T18:11:41.001Z,97461.78
2023-05-12T18:16:44.471Z,97466.53
2023-05-12T18:21:47.711Z,97464.13
2023-05-12T18:26:52.326Z,97471.06
2023-05-12T18:31:55.598Z,97474.13
2023-05-12T18:36:59.861Z,97475.63
2023-05-12T18:42:04.927Z,97479.22
2023-05-12T18:47:08.656Z,97480.22
2023-05-12T18:52:11.792Z,97489.03
2023-05-12T18:57:16.452Z,97490.50
2023-05-12T19:02:19.815Z,97493.38
2023-05-12T19:07:23.035Z,97505.66
2023-05-12T19:12:27.780Z,97501.03
2023-05-12T19:17:31.177Z,97508.59
2023-05-12T19:22:35.705Z,97509.44
2023-05-12T19:27:41.384Z,97515.03
2023-05-12T19:32:46.319Z,97529.00
2023-05-12T19:37:49.862Z,97527.16
2023-05-12T19:42:55.182Z,97540.75
2023-05-12T19:47:59.202Z,97551.34
2023-05-12T19:53:03.045Z,97565.97
2023-05-12T19:58:08.912Z,97572.66
2023-05-12T20:03:12.454Z,97570.16
2023-05-12T20:08:16.208Z,97572.00
2023-05-12T20:13:21.735Z,97561.19
2023-05-12T20:18:25.736Z,97571.94
2023-05-12T20:23:29.220Z,97575.19
2023-05-12T20:28:34.002Z,97577.59
2023-05-12T20:33:37.333Z,97591.66
2023-05-12T20:38:40.618Z,97589.91
2023-05-12T20:43:46.268Z,97588.16
2023-05-12T20:48:49.559Z,97583.28
2023-05-12T20:53:53.015Z,97592.50
2023-05-12T20:58:58.492Z,97589.28
2023-05-12T21:04:01.893Z,97603.06
2023-05-12T21:09:05.406Z,97603.38
2023-05-12T21:14:10.036Z,97600.25
2023-05-12T21:19:13.536Z,97600.09
2023-05-12T21:24:17.865Z,97610.88
2023-05-12T21:29:22.880Z,97602.56
2023-05-12T21:34:26.872Z,97592.38
2023-05-12T21:39:30.205Z,97601.63
2023-05-12T21:44:35.068Z,97613.00
2023-05-12T21:49:38.632Z,97611.44
2023-05-12T21:54:42.480Z,97613.94
2023-05-12T21:59:48.211Z,97610.50
2023-05-12T22:04:51.608Z,97605.59
2023-05-12T22:09:55.330Z,97615.66
2023-05-12T22:15:00.218Z,97615.56
2023-05-12T22:20:03.466Z,97617.13
2023-05-12T22:25:08.009Z,97629.44
2023-05-12T22:30:13.703Z,97633.06
2023-05-12T22:35:17.101Z,97632.19
2023-05-12T22:40:21.588Z,97638.47
2023-05-12T22:45:26.476Z,97639.41
2023-05-12T22:50:29.663Z,97644.81
2023-05-12T22:55:33.134Z,97651.16
2023-05-12T23:00:38.018Z,97650.19
2023-05-12T23:05:41.319Z,97645.00
2023-05-12T23:10:44.669Z,97649.06
2023-05-12T23:15:49.329Z,97649.59
2023-05-12T23:20:52.728Z,97645.13
2023-05-12T23:25:56.017Z,97645.53
2023-05-12T23:31:00.896Z,97642.25
2023-05-12T23:36:04.320Z,97645.19
2023-05-12T23:41:07.723Z,97646.75
2023-05-12T23:46:12.362Z,97641.59
2023-05-12T23:51:15.768Z,97637.72
2023-05-12T23:56:18.982Z,97638.13
